createdAt,value
2023-01-06T00:01:20.633Z,2.78
2023-01-06T00:03:51.869Z,1.42
2023-01-06T00:06:20.039Z,4.85
2023-01-06T00:08:46.750Z,2.53
2023-01-06T00:11:14.837Z,0.95
2023-01-06T00:13:41.645Z,3.53
2023-01-06T00:16:11.956Z,1.05
2023-01-06T00:18:39.256Z,3.33
2023-01-06T00:21:06.933Z,3.47
2023-01-06T00:23:34.526Z,13.93
2023-01-06T00:26:01.518Z,14.82
2023-01-06T00:28:28.430Z,16.27
2023-01-06T00:30:55.179Z,10.25
2023-01-06T00:33:22.015Z,5.75
2023-01-06T00:35:48.680Z,4.90
2023-01-06T00:38:15.452Z,1.33
2023-01-06T00:40:42.141Z,1.52
2023-01-06T00:43:08.836Z,2.50
2023-01-06T00:45:35.571Z,1.23
2023-01-06T00:48:02.254Z,1.70
2023-01-06T00:50:29.067Z,1.45
2023-01-06T00:52:55.759Z,2.55
2023-01-06T00:55:22.437Z,1.65
2023-01-06T00:57:52.547Z,4.60
2023-01-06T01:00:19.611Z,4.15
2023-01-06T01:02:46.435Z,3.63
2023-01-06T01:05:13.412Z,1.85
2023-01-06T01:07:41.106Z,2.78
2023-01-06T01:10:08.813Z,2.35
2023-01-06T01:12:36.227Z,1.40
2023-01-06T01:15:03.556Z,1.52
2023-01-06T01:17:32.004Z,1.90
2023-01-06T01:20:00.865Z,1.17
2023-01-06T01:22:29.787Z,2.65
2023-01-06T01:24:56.595Z,1.95
2023-01-06T01:27:23.387Z,3.03
2023-01-06T01:29:50.087Z,1.40
2023-01-06T01:32:16.740Z,1.25
2023-01-06T01:34:43.364Z,1.85
2023-01-06T01:37:10.101Z,4.63
2023-01-06T01:39:36.962Z,3.35
2023-01-06T01:42:03.836Z,1.50
2023-01-06T01:44:57.642Z,1.05
2023-01-06T01:47:26.712Z,4.30
2023-01-06T01:49:57.546Z,1.73
2023-01-06T01:52:25.320Z,2.60
2023-01-06T01:54:53.947Z,4.15
2023-01-06T01:57:27.094Z,4.95
2023-01-06T01:59:54.233Z,2.25
2023-01-06T02:02:22.688Z,3.13
2023-01-06T02:04:53.275Z,3.85
2023-01-06T02:07:21.578Z,9.82
2023-01-06T02:10:16.848Z,5.47
2023-01-06T02:12:45.833Z,3.47
2023-01-06T02:15:38.017Z,4.07
2023-01-06T02:18:16.659Z,2.35
2023-01-06T02:21:04.421Z,4.25
2023-01-06T02:23:54.140Z,2.55
2023-01-06T02:27:08.047Z,2.60
2023-01-06T02:29:37.688Z,2.42
2023-01-06T02:32:38.163Z,1.70
2023-01-06T02:35:26.689Z,1.25
2023-01-06T02:37:56.399Z,2.63
2023-01-06T02:41:03.099Z,3.50
2023-01-06T02:43:37.453Z,2.60
2023-01-06T02:46:36.692Z,2.40
2023-01-06T02:49:16.435Z,4.93
2023-01-06T02:52:03.359Z,1.73
2023-01-06T02:54:59.036Z,2.15
2023-01-06T02:57:43.713Z,1.98
2023-01-06T03:00:26.041Z,1.27
2023-01-06T03:03:07.561Z,2.53
2023-01-06T03:05:36.990Z,1.53
2023-01-06T03:08:11.730Z,2.05
2023-01-06T03:10:40.647Z,0.65
2023-01-06T03:13:19.747Z,3.75
2023-01-06T03:15:46.477Z,2.97
2023-01-06T03:18:13.164Z,1.27
2023-01-06T03:20:39.964Z,2.38
2023-01-06T03:23:06.752Z,1.98
2023-01-06T03:25:33.503Z,4.55
2023-01-06T03:28:00.183Z,1.55
2023-01-06T03:30:45.371Z,0.75
2023-01-06T03:33:32.207Z,0.40
2023-01-06T03:36:02.579Z,2.05
2023-01-06T03:38:50.630Z,3.63
2023-01-06T03:41:22.993Z,0.65
2023-01-06T03:46:34.694Z,2.15
2023-01-06T03:49:28.501Z,2.10
2023-01-06T03:52:00.158Z,1.08
2023-01-06T03:54:37.727Z,1.95
2023-01-06T03:57:04.471Z,1.00
2023-01-06T03:59:35.836Z,2.55
2023-01-06T04:02:05.611Z,1.20
2023-01-06T04:04:32.403Z,3.22
2023-01-06T04:06:59.334Z,1.67
2023-01-06T04:09:25.975Z,2.88
2023-01-06T04:12:11.138Z,2.47
2023-01-06T04:14:37.884Z,1.27
2023-01-06T04:17:04.523Z,3.22
2023-01-06T04:19:31.297Z,1.08
2023-01-06T04:21:57.915Z,1.13
2023-01-06T04:24:24.589Z,2.42
2023-01-06T04:26:51.270Z,1.17
2023-01-06T04:29:17.979Z,2.20
2023-01-06T04:31:44.769Z,1.77
2023-01-06T04:34:11.449Z,3.70
2023-01-06T04:36:38.310Z,2.45
2023-01-06T04:39:05.128Z,2.85
2023-01-06T04:41:32.190Z,1.55
2023-01-06T04:43:58.953Z,0.93
2023-01-06T04:46:25.612Z,1.60
2023-01-06T04:48:52.231Z,1.35
2023-01-06T04:51:18.941Z,1.15
2023-01-06T04:53:45.656Z,1.38
2023-01-06T04:56:13.711Z,1.33
2023-01-06T04:58:40.535Z,1.30
2023-01-06T05:01:11.246Z,1.15
2023-01-06T05:03:38.735Z,1.50
2023-01-06T05:06:11.215Z,1.05
2023-01-06T05:08:39.354Z,0.77
2023-01-06T05:11:18.135Z,6.57
2023-01-06T05:13:45.492Z,5.25
2023-01-06T05:16:22.931Z,7.05
2023-01-06T05:18:49.776Z,8.98
2023-01-06T05:21:16.676Z,12.90
2023-01-06T05:23:43.354Z,13.57
2023-01-06T05:26:15.662Z,5.93
2023-01-06T05:31:10.573Z,9.57
2023-01-06T05:33:37.288Z,3.35
2023-01-06T05:36:06.637Z,6.00
2023-01-06T05:38:34.372Z,16.38
2023-01-06T05:41:01.936Z,6.82
2023-01-06T05:43:29.277Z,7.90
2023-01-06T05:45:56.505Z,3.28
2023-01-06T05:48:29.050Z,6.43
2023-01-06T05:51:03.789Z,5.97
2023-01-06T05:53:34.932Z,6.05
2023-01-06T05:56:06.249Z,3.72
2023-01-06T05:58:33.516Z,2.55
2023-01-06T06:01:01.802Z,2.90
2023-01-06T06:03:28.628Z,4.13
2023-01-06T06:05:55.344Z,3.20
2023-01-06T06:08:21.981Z,2.85
2023-01-06T06:10:48.613Z,5.40
2023-01-06T06:13:15.261Z,3.70
2023-01-06T06:15:41.911Z,2.13
2023-01-06T06:18:08.566Z,3.70
2023-01-06T06:20:35.197Z,3.00
2023-01-06T06:23:01.836Z,2.22
2023-01-06T06:25:29.443Z,1.83
2023-01-06T06:27:59.990Z,2.92
2023-01-06T06:30:26.766Z,1.33
2023-01-06T06:32:53.425Z,1.88
2023-01-06T06:35:20.075Z,1.10
2023-01-06T06:37:46.776Z,0.50
2023-01-06T06:40:13.426Z,4.00
2023-01-06T06:42:40.136Z,4.60
2023-01-06T06:45:07.407Z,5.78
2023-01-06T06:47:34.150Z,4.70
2023-01-06T06:50:00.836Z,1.65
2023-01-06T06:52:27.512Z,1.00
2023-01-06T06:54:54.131Z,2.10
2023-01-06T06:57:20.737Z,2.15
2023-01-06T06:59:47.377Z,1.83
2023-01-06T07:02:14.120Z,1.10
2023-01-06T07:04:40.905Z,1.52
2023-01-06T07:07:07.575Z,1.00
2023-01-06T07:09:34.253Z,4.22
2023-01-06T07:12:00.977Z,1.38
2023-01-06T07:14:27.607Z,3.38
2023-01-06T07:16:54.214Z,1.10
2023-01-06T07:19:20.852Z,0.90
2023-01-06T07:21:47.493Z,2.22
2023-01-06T07:24:14.177Z,2.33
2023-01-06T07:26:40.844Z,1.95
2023-01-06T07:29:07.511Z,1.98
2023-01-06T07:31:34.304Z,3.15
2023-01-06T07:34:01.039Z,0.88
2023-01-06T07:36:27.682Z,4.35
2023-01-06T07:38:54.391Z,2.35
2023-01-06T07:41:21.062Z,0.90
2023-01-06T07:43:47.803Z,1.45
2023-01-06T07:46:17.216Z,1.85
2023-01-06T07:48:43.881Z,5.90
2023-01-06T07:51:10.515Z,0.88
2023-01-06T07:53:37.252Z,4.90
2023-01-06T07:56:03.995Z,0.73
2023-01-06T07:58:31.338Z,1.15
2023-01-06T08:00:57.980Z,1.38
2023-01-06T08:03:24.714Z,6.88
2023-01-06T08:05:51.429Z,3.58
2023-01-06T08:08:18.127Z,1.00
2023-01-06T08:10:44.891Z,1.02
2023-01-06T08:13:12.001Z,1.13
2023-01-06T08:15:39.197Z,1.00
2023-01-06T08:18:06.397Z,0.77
2023-01-06T08:20:34.168Z,2.10
2023-01-06T08:23:01.624Z,3.58
2023-01-06T08:25:28.314Z,0.80
2023-01-06T08:27:55.015Z,6.90
2023-01-06T08:30:21.799Z,3.95
2023-01-06T08:32:49.404Z,1.00
2023-01-06T08:35:16.827Z,1.38
2023-01-06T08:37:43.593Z,3.70
2023-01-06T08:40:10.782Z,1.27
2023-01-06T08:42:37.496Z,2.97
2023-01-06T08:45:04.604Z,1.10
2023-01-06T08:47:31.246Z,2.05
2023-01-06T08:49:57.926Z,2.75
2023-01-06T08:52:24.570Z,1.67
2023-01-06T08:54:51.387Z,1.17
2023-01-06T08:57:18.053Z,1.20
2023-01-06T08:59:44.795Z,2.30
2023-01-06T09:02:12.104Z,2.10
2023-01-06T09:04:38.905Z,1.88
2023-01-06T09:07:05.773Z,1.15
2023-01-06T09:09:32.539Z,1.63
2023-01-06T09:11:59.280Z,2.55
2023-01-06T09:14:25.989Z,3.55
2023-01-06T09:16:52.702Z,2.08
2023-01-06T09:19:20.472Z,1.38
2023-01-06T09:21:47.200Z,1.90
2023-01-06T09:24:15.328Z,4.43
2023-01-06T09:26:42.268Z,3.15
2023-01-06T09:29:09.116Z,1.00
2023-01-06T09:31:35.933Z,1.30
2023-01-06T09:34:02.685Z,1.50
2023-01-06T09:36:29.305Z,2.47
2023-01-06T09:38:56.022Z,1.10
2023-01-06T09:41:57.642Z,1.25
2023-01-06T09:44:47.600Z,1.02
2023-01-06T09:47:20.363Z,2.55
2023-01-06T09:49:49.783Z,2.53
2023-01-06T09:52:25.318Z,3.42
2023-01-06T09:55:00.266Z,3.45
2023-01-06T09:57:43.883Z,2.80
2023-01-06T10:00:22.820Z,11.85
2023-01-06T10:02:49.661Z,3.33
2023-01-06T10:05:45.429Z,5.53
2023-01-06T10:08:23.173Z,1.98
2023-01-06T10:11:10.236Z,1.55
2023-01-06T10:13:45.977Z,4.78
2023-01-06T10:16:34.882Z,1.48
2023-01-06T10:19:28.864Z,2.35
2023-01-06T10:22:29.595Z,3.38
2023-01-06T10:25:02.153Z,2.85
2023-01-06T10:27:54.379Z,2.95
2023-01-06T10:30:33.917Z,1.35
2023-01-06T10:33:04.739Z,1.23
2023-01-06T10:35:32.103Z,5.60
2023-01-06T10:38:03.032Z,1.63
2023-01-06T10:40:30.714Z,4.88
2023-01-06T10:43:04.085Z,3.65
2023-01-06T10:45:47.912Z,6.25
2023-01-06T10:48:18.764Z,2.40
2023-01-06T10:50:45.839Z,2.75
2023-01-06T10:53:13.837Z,2.17
2023-01-06T10:55:46.630Z,3.63
2023-01-06T10:58:45.491Z,3.25
2023-01-06T11:01:17.163Z,3.67
2023-01-06T11:03:45.689Z,1.35
2023-01-06T11:06:30.298Z,1.02
2023-01-06T11:08:58.136Z,1.75
2023-01-06T11:11:29.390Z,3.53
2023-01-06T11:14:00.793Z,2.23
2023-01-06T11:16:32.957Z,2.70
2023-01-06T11:19:08.072Z,2.03
2023-01-06T11:21:44.288Z,0.70
2023-01-06T11:24:31.301Z,1.83
2023-01-06T11:27:14.228Z,0.63
2023-01-06T11:29:40.951Z,0.80
2023-01-06T11:32:24.424Z,0.50
2023-01-06T11:34:57.612Z,1.17
2023-01-06T11:37:43.201Z,4.10
2023-01-06T11:40:21.600Z,1.13
2023-01-06T11:42:51.291Z,1.85
2023-01-06T11:45:38.859Z,4.00
2023-01-06T11:48:18.571Z,1.83
2023-01-06T11:50:57.226Z,2.92
2023-01-06T11:53:27.224Z,0.50
2023-01-06T11:56:02.491Z,2.28
2023-01-06T11:58:35.676Z,1.63
2023-01-06T12:01:34.391Z,1.65
2023-01-06T12:04:30.587Z,1.80
2023-01-06T12:07:07.262Z,0.82
2023-01-06T12:09:38.332Z,0.50
2023-01-06T12:12:09.737Z,0.90
2023-01-06T12:14:40.016Z,2.43
2023-01-06T12:17:33.316Z,2.45
2023-01-06T12:20:05.900Z,6.15
2023-01-06T12:22:41.753Z,5.93
2023-01-06T12:25:31.279Z,0.95
2023-01-06T12:28:04.937Z,1.48
2023-01-06T12:30:44.593Z,1.85
2023-01-06T12:33:16.457Z,1.17
2023-01-06T12:35:45.175Z,1.40
2023-01-06T12:38:35.965Z,1.17
2023-01-06T12:41:09.802Z,2.25
2023-01-06T12:43:41.063Z,1.15
2023-01-06T12:46:15.061Z,1.30
2023-01-06T12:48:56.155Z,1.10
2023-01-06T12:51:44.180Z,1.08
2023-01-06T12:54:14.240Z,1.27
2023-01-06T12:57:04.866Z,2.42
2023-01-06T12:59:56.499Z,1.95
2023-01-06T13:02:32.642Z,4.80
2023-01-06T13:05:06.131Z,1.23
2023-01-06T13:08:00.908Z,4.70
2023-01-06T13:10:48.639Z,1.13
2023-01-06T13:14:07.730Z,0.80
2023-01-06T13:16:57.021Z,0.70
2023-01-06T13:19:23.714Z,0.65
2023-01-06T13:21:57.680Z,1.17
2023-01-06T13:24:30.277Z,1.75
2023-01-06T13:27:08.917Z,1.23
2023-01-06T13:30:00.201Z,1.83
2023-01-06T13:32:36.056Z,2.05
2023-01-06T13:35:23.803Z,3.30
2023-01-06T13:38:12.807Z,0.80
2023-01-06T13:40:41.161Z,2.05
2023-01-06T13:43:28.073Z,0.98
2023-01-06T13:46:00.148Z,2.90
2023-01-06T13:48:49.912Z,1.05
2023-01-06T13:51:19.803Z,1.30
2023-01-06T13:53:47.395Z,1.33
2023-01-06T13:56:14.042Z,0.93
2023-01-06T13:58:49.062Z,3.67
2023-01-06T14:01:18.991Z,2.97
2023-01-06T14:03:47.669Z,4.18
2023-01-06T14:06:23.407Z,1.45
2023-01-06T14:08:59.284Z,1.85
2023-01-06T14:11:35.223Z,1.15
2023-01-06T14:14:28.375Z,1.58
2023-01-06T14:16:56.919Z,2.03
2023-01-06T14:19:27.861Z,13.75
2023-01-06T14:22:13.649Z,3.85
2023-01-06T14:24:47.869Z,0.90
2023-01-06T14:27:14.743Z,1.10
2023-01-06T14:29:44.333Z,4.57
2023-01-06T14:32:31.246Z,1.45
2023-01-06T14:35:19.940Z,2.28
2023-01-06T14:37:51.357Z,2.17
2023-01-06T14:40:24.329Z,2.07
2023-01-06T14:42:52.165Z,3.00
2023-01-06T14:45:29.336Z,4.13
2023-01-06T14:48:24.293Z,2.92
2023-01-06T14:50:56.408Z,2.03
2023-01-06T14:53:47.679Z,3.80
2023-01-06T14:56:20.708Z,1.77
2023-01-06T14:58:47.560Z,0.93
2023-01-06T15:01:25.413Z,1.80
2023-01-06T15:03:58.292Z,0.90
2023-01-06T15:06:27.126Z,1.08
2023-01-06T15:08:55.346Z,2.67
2023-01-06T15:11:26.456Z,2.83
2023-01-06T15:13:53.349Z,2.90
2023-01-06T15:16:28.737Z,2.00
2023-01-06T15:18:55.788Z,1.85
2023-01-06T15:21:23.808Z,10.30
2023-01-06T15:23:52.508Z,1.75
2023-01-06T15:26:23.789Z,2.47
2023-01-06T15:29:05.769Z,3.53
2023-01-06T15:31:37.904Z,5.72
2023-01-06T15:34:27.871Z,2.00
2023-01-06T15:36:56.490Z,4.13
2023-01-06T15:39:28.171Z,3.55
2023-01-06T15:41:56.126Z,6.60
2023-01-06T15:44:33.084Z,5.40
2023-01-06T15:47:11.488Z,8.05
2023-01-06T15:49:48.050Z,8.38
2023-01-06T15:52:25.096Z,4.05
2023-01-06T15:54:55.485Z,2.25
2023-01-06T15:57:22.621Z,1.88
2023-01-06T15:59:59.247Z,2.00
2023-01-06T16:02:30.390Z,2.97
2023-01-06T16:04:59.481Z,4.63
2023-01-06T16:07:40.026Z,2.17
2023-01-06T16:10:33.458Z,1.42
2023-01-06T16:13:04.093Z,16.00
2023-01-06T16:15:35.764Z,5.25
2023-01-06T16:18:02.569Z,3.15
2023-01-06T16:20:29.237Z,2.15
2023-01-06T16:22:56.503Z,2.20
2023-01-06T16:25:24.972Z,2.35
2023-01-06T16:27:53.860Z,4.50
2023-01-06T16:30:39.189Z,2.80
2023-01-06T16:33:05.956Z,2.10
2023-01-06T16:35:34.435Z,4.60
2023-01-06T16:38:01.383Z,2.13
2023-01-06T16:40:29.122Z,2.63
2023-01-06T16:43:02.600Z,1.45
2023-01-06T16:45:34.425Z,1.50
2023-01-06T16:48:01.299Z,1.70
2023-01-06T16:50:36.781Z,4.90
2023-01-06T16:53:18.635Z,12.48
2023-01-06T16:55:46.260Z,1.77
2023-01-06T16:58:39.304Z,1.02
2023-01-06T17:01:20.973Z,5.68
2023-01-06T17:03:56.745Z,1.70
2023-01-06T17:06:27.462Z,2.72
2023-01-06T17:09:01.730Z,2.95
2023-01-06T17:11:31.670Z,2.75
2023-01-06T17:14:01.945Z,7.85
2023-01-06T17:16:34.156Z,5.40
2023-01-06T17:21:33.785Z,76.22
2023-01-06T17:24:23.515Z,86.07
2023-01-06T17:26:57.583Z,107.85
2023-01-06T17:29:27.973Z,94.95
2023-01-06T17:32:00.993Z,64.60
2023-01-06T17:34:33.479Z,51.30
2023-01-06T17:37:11.753Z,12.95
2023-01-06T17:39:41.534Z,14.73
2023-01-06T17:42:08.220Z,26.83
2023-01-06T17:44:43.766Z,25.25
2023-01-06T17:47:16.206Z,10.15
2023-01-06T17:50:18.680Z,16.40
2023-01-06T17:53:05.355Z,5.40
2023-01-06T17:55:45.304Z,5.70
2023-01-06T17:58:18.102Z,22.00
2023-01-06T18:00:45.769Z,25.50
2023-01-06T18:03:18.619Z,20.77
2023-01-06T18:05:45.625Z,23.58
2023-01-06T18:08:16.895Z,20.90
2023-01-06T18:10:45.664Z,13.30
2023-01-06T18:13:32.046Z,17.90
2023-01-06T18:16:00.771Z,9.30
2023-01-06T18:18:37.491Z,8.57
2023-01-06T18:21:16.318Z,12.50
2023-01-06T18:23:46.270Z,12.95
2023-01-06T18:26:49.257Z,8.57
2023-01-06T18:29:25.227Z,6.28
2023-01-06T18:31:53.679Z,7.93
2023-01-06T18:34:26.221Z,10.18
2023-01-06T18:36:54.527Z,11.65
2023-01-06T18:39:25.219Z,14.77
2023-01-06T18:42:02.015Z,11.88
2023-01-06T18:44:29.106Z,8.98
2023-01-06T18:46:55.772Z,5.60
2023-01-06T18:49:26.439Z,6.05
2023-01-06T18:51:53.127Z,14.38
2023-01-06T18:54:21.731Z,13.93
2023-01-06T18:56:48.697Z,10.30
2023-01-06T18:59:18.612Z,11.10
2023-01-06T19:01:50.768Z,13.27
2023-01-06T19:04:31.490Z,18.63
2023-01-06T19:07:05.611Z,22.63
2023-01-06T19:09:43.771Z,19.63
2023-01-06T19:12:15.771Z,24.42
2023-01-06T19:14:45.211Z,19.13
2023-01-06T19:17:27.387Z,15.52
2023-01-06T19:19:56.502Z,7.22
2023-01-06T19:22:27.274Z,5.97
2023-01-06T19:25:04.711Z,5.28
2023-01-06T19:27:31.595Z,9.95
2023-01-06T19:30:13.496Z,8.90
2023-01-06T19:32:40.456Z,8.32
2023-01-06T19:35:22.001Z,8.15
2023-01-06T19:38:00.431Z,7.75
2023-01-06T19:40:31.569Z,4.50
2023-01-06T19:43:10.516Z,5.25
2023-01-06T19:45:37.285Z,8.63
2023-01-06T19:48:27.834Z,15.27
2023-01-06T19:51:02.851Z,10.18
2023-01-06T19:53:41.512Z,7.40
2023-01-06T19:56:21.675Z,20.27
2023-01-06T19:59:12.979Z,32.65
2023-01-06T20:01:39.723Z,10.77
2023-01-06T20:04:26.837Z,16.05
2023-01-06T20:06:54.104Z,9.25
2023-01-06T20:09:21.922Z,14.00
2023-01-06T20:11:52.540Z,14.27
2023-01-06T20:14:20.106Z,8.60
2023-01-06T20:16:47.440Z,7.88
2023-01-06T20:19:15.779Z,5.78
2023-01-06T20:21:43.240Z,5.70
2023-01-06T20:24:14.339Z,8.23
2023-01-06T20:26:41.056Z,4.70
2023-01-06T20:29:08.171Z,10.63
2023-01-06T20:31:34.878Z,10.18
2023-01-06T20:34:01.537Z,3.88
2023-01-06T20:36:28.298Z,11.30
2023-01-06T20:38:55.098Z,4.78
2023-01-06T20:41:21.778Z,21.63
2023-01-06T20:43:48.432Z,5.03
2023-01-06T20:46:15.194Z,7.35
2023-01-06T20:48:41.967Z,10.82
2023-01-06T20:51:08.990Z,8.15
2023-01-06T20:53:36.876Z,4.72
2023-01-06T20:56:03.688Z,14.55
2023-01-06T20:58:30.375Z,10.88
2023-01-06T21:00:57.073Z,9.75
2023-01-06T21:03:23.759Z,8.23
2023-01-06T21:05:50.400Z,15.07
2023-01-06T21:08:17.061Z,16.45
2023-01-06T21:10:43.683Z,18.45
2023-01-06T21:13:10.354Z,8.23
2023-01-06T21:15:37.206Z,7.30
2023-01-06T21:18:04.104Z,13.75
2023-01-06T21:20:30.862Z,7.60
2023-01-06T21:22:57.545Z,28.23
2023-01-06T21:25:24.859Z,33.22
2023-01-06T21:27:51.612Z,24.25
2023-01-06T21:30:18.377Z,12.95
2023-01-06T21:32:45.094Z,13.10
2023-01-06T21:35:11.919Z,10.23
2023-01-06T21:37:38.583Z,6.05
2023-01-06T21:40:08.130Z,10.27
2023-01-06T21:42:53.612Z,4.38
2023-01-06T21:45:20.306Z,4.40
2023-01-06T21:47:47.065Z,3.03
2023-01-06T21:50:13.822Z,5.95
2023-01-06T21:52:40.569Z,10.65
2023-01-06T21:55:07.720Z,2.72
2023-01-06T21:57:35.995Z,2.72
2023-01-06T22:00:04.509Z,2.70
2023-01-06T22:02:31.320Z,2.15
2023-01-06T22:04:58.205Z,2.67
2023-01-06T22:07:25.084Z,2.72
2023-01-06T22:09:53.070Z,5.05
2023-01-06T22:12:20.353Z,2.92
2023-01-06T22:14:50.652Z,3.33
2023-01-06T22:17:19.150Z,2.05
2023-01-06T22:19:47.100Z,2.00
2023-01-06T22:22:14.319Z,3.50
2023-01-06T22:24:41.277Z,2.25
2023-01-06T22:27:07.934Z,3.15
2023-01-06T22:29:34.599Z,3.90
2023-01-06T22:32:02.857Z,2.38
2023-01-06T22:34:29.685Z,2.05
2023-01-06T22:36:56.659Z,1.75
2023-01-06T22:51:54.646Z,5.10
2023-01-06T22:54:21.361Z,2.97
2023-01-06T22:56:48.056Z,2.28
2023-01-06T22:59:14.703Z,1.65
2023-01-06T23:01:41.493Z,2.22
2023-01-06T23:04:08.279Z,2.13
2023-01-06T23:06:34.994Z,2.40
2023-01-06T23:09:01.780Z,1.80
2023-01-06T23:11:29.154Z,1.58
2023-01-06T23:13:58.141Z,3.00
2023-01-06T23:16:26.766Z,1.20
2023-01-06T23:18:53.961Z,1.95
2023-01-06T23:21:23.509Z,1.10
2023-01-06T23:23:51.215Z,1.73
2023-01-06T23:26:25.341Z,1.92
2023-01-06T23:28:52.998Z,1.48
2023-01-06T23:31:25.511Z,1.65
2023-01-06T23:33:58.570Z,1.08
2023-01-06T23:36:27.814Z,28.40
2023-01-06T23:38:59.280Z,31.92
2023-01-06T23:41:28.776Z,4.53
2023-01-06T23:43:56.486Z,4.88
2023-01-06T23:46:29.438Z,22.00
2023-01-06T23:48:57.058Z,24.70
2023-01-06T23:51:24.940Z,17.25
2023-01-06T23:53:52.576Z,19.52
2023-01-06T23:56:24.937Z,20.63
